Data for 11/13/2009

Time Sea-Level Adjusted Pressure Absolute Pressure Temperature Relative Humidity Dew Point   
(mb) (inHg) (mb) (inHg) (C) (F) (%) (C) (F)
00:05 1009 29.8 838 24.75 2.2 35.9 96 1.6 34.9
00:10 1009 29.8 838 24.75 2.1 35.8 96 1.5 34.7
00:15 1009 29.8 838 24.75 1.9 35.5 95 1.2 34.2
00:20 1009 29.8 838 24.75 1.5 34.7 94 0.7 33.3
00:25 1009 29.8 838 24.75 1.1 34 95 0.4 32.7
00:30 1009 29.8 838 24.75 0.9 33.6 95 0.2 32.4
00:35 1009 29.8 838 24.75 0.7 33.3 96 0.1 32.2
00:40 1009 29.8 838 24.75 0.6 33.1 96 0.1 32.1
00:45 1009 29.8 838 24.75 0.5 32.9 96 -0 32
00:50 1009 29.8 838 24.75 0.4 32.8 97 -0 31.9
00:55 1009 29.8 838 24.75 0.4 32.7 97 -0.1 31.9
01:00 1009 29.8 838 24.75 0.4 32.7 97 -0 31.9
01:05 1009 29.8 838 24.75 0.4 32.7 97 -0.1 31.9
01:10 1009 29.8 838 24.75 0.3 32.6 97 -0.1 31.9
01:15 1009 29.8 838 24.75 0.3 32.6 97 -0.1 31.9
01:20 1009 29.8 838 24.75 0.3 32.6 97 -0.1 31.8
01:25 1009 29.8 838 24.75 0.3 32.5 97 -0.1 31.8
01:30 1009 29.8 838 24.75 0.3 32.5 97 -0.2 31.7
00:05 1011 29.85 840 24.81 -3.4 25.8 97 -3.9 25
00:10 1011 29.85 840 24.81 -3.5 25.7 97 -4 24.9
00:15 1011 29.85 840 24.81 -3.6 25.6 97 -4 24.8
00:20 1011 29.85 840 24.81 -3.6 25.6 97 -4 24.8
00:25 1011 29.85 840 24.81 -3.7 25.4 97 -4.2 24.5
00:30 1010 29.83 840 24.81 -3.7 25.3 97 -4.2 24.5
00:35 1010 29.83 840 24.81 -3.8 25.2 97 -4.3 24.3
00:40 1010 29.83 840 24.81 -3.9 25 97 -4.3 24.2
00:45 1010 29.83 839 24.78 -4 24.8 96 -4.5 23.9
00:50 1010 29.83 839 24.78 -4.1 24.6 96 -4.6 23.7
00:55 1010 29.83 839 24.78 -4.3 24.3 96 -4.8 23.3
01:00 1010 29.83 839 24.78 -4.4 24.1 96 -5 23.1
01:05 1010 29.83 839 24.78 -4.5 23.9 96 -5.1 22.8
01:10 1010 29.83 839 24.78 -4.6 23.7 95 -5.3 22.5
01:15 1010 29.83 839 24.78 -4.8 23.3 95 -5.5 22
01:20 1010 29.83 839 24.78 -5.2 22.7 94 -6 21.1
01:25 1010 29.83 839 24.78 -5.4 22.2 94 -6.3 20.6
01:30 1010 29.83 839 24.78 -5.7 21.7 93 -6.7 20
01:35 1010 29.83 839 24.78 -6 21.3 93 -6.9 19.5
01:40 1010 29.83 839 24.78 -6.1 21 93 -7.1 19.2
01:45 1010 29.83 839 24.78 -6.2 20.8 93 -7.2 19.1
01:50 1010 29.83 839 24.78 -6.3 20.7 93 -7.2 19
01:55 1010 29.83 839 24.78 -6.4 20.5 94 -7.3 18.9
02:00 1010 29.83 839 24.78 -6.4 20.4 94 -7.3 18.9
02:05 1010 29.83 839 24.78 -6.5 20.4 94 -7.3 18.9
02:10 1010 29.83 839 24.78 -6.5 20.4 94 -7.3 18.9
02:15 1010 29.83 839 24.78 -6.5 20.3 94 -7.2 19
02:20 1010 29.83 839 24.78 -6.5 20.3 94 -7.2 19
02:25 1010 29.83 839 24.78 -6.5 20.3 94 -7.2 19
02:30 1010 29.83 839 24.78 -6.5 20.2 94 -7.4 18.8
02:35 1010 29.83 839 24.78 -6.7 20 93 -7.7 18.2
02:40 1010 29.83 839 24.78 -6.8 19.7 93 -7.9 17.9
02:45 1010 29.83 839 24.78 -6.9 19.6 92 -7.9 17.7
02:50 1010 29.83 839 24.78 -7 19.5 92 -8 17.6
02:55 1010 29.83 839 24.78 -7 19.3 92 -8.1 17.4
03:00 1010 29.83 839 24.78 -7.1 19.2 92 -8.2 17.3
03:05 1010 29.83 839 24.78 -7.2 19 92 -8.3 17
03:10 1010 29.83 839 24.78 -7.3 18.8 92 -8.5 16.8
03:15 1010 29.83 839 24.78 -7.4 18.7 92 -8.5 16.7
03:20 1010 29.83 839 24.78 -7.4 18.6 92 -8.5 16.7
03:25 1010 29.83 839 24.78 -7.5 18.5 92 -8.6 16.5
03:30 1010 29.83 839 24.78 -7.6 18.3 90 -8.9 15.9
03:35 1010 29.83 839 24.78 -7.8 17.9 90 -9.2 15.4
03:40 1010 29.83 839 24.78 -8 17.5 89 -9.6 14.7
03:45 1010 29.83 839 24.78 -8.3 17.1 89 -9.8 14.3
03:50 1010 29.83 839 24.78 -8.5 16.8 89 -10 14
03:55 1010 29.83 839 24.78 -8.7 16.4 90 -10 13.9
04:00 1010 29.83 839 24.78 -8.8 16.2 90 -10.1 13.8
04:05 1010 29.83 839 24.78 -8.9 16.1 91 -10 14
04:10 1009 29.8 839 24.78 -8.8 16.1 92 -9.9 14.2
04:15 1009 29.8 839 24.78 -8.8 16.2 92 -9.9 14.2
04:20 1009 29.8 839 24.78 -8.8 16.2 91 -10 14
04:25 1010 29.83 839 24.78 -8.9 16 91 -10.1 13.8
04:30 1009 29.8 839 24.78 -9 15.9 91 -10.2 13.7
04:35 1009 29.8 839 24.78 -9 15.8 91 -10.2 13.6
04:40 1009 29.8 839 24.78 -9.1 15.6 91 -10.4 13.3
04:45 1009 29.8 839 24.78 -9.3 15.3 91 -10.5 13
04:50 1009 29.8 839 24.78 -9.4 15.1 91 -10.7 12.8
04:55 1009 29.8 839 24.78 -9.5 14.9 91 -10.8 12.6
05:00 1009 29.8 839 24.78 -9.6 14.8 91 -10.8 12.6
05:05 1009 29.8 839 24.78 -9.6 14.7 91 -10.8 12.6
05:10 1009 29.8 839 24.78 -9.6 14.7 91 -10.8 12.5
05:15 1009 29.8 839 24.78 -9.7 14.5 91 -11 12.3
05:20 1009 29.8 839 24.78 -9.8 14.4 91 -11 12.2
05:25 1009 29.8 839 24.78 -9.8 14.4 91 -10.9 12.3
05:30 1009 29.8 839 24.78 -9.8 14.3 91 -11 12.2
05:35 1009 29.8 839 24.78 -9.9 14.2 90 -11.3 11.7
05:40 1009 29.8 839 24.78 -10.1 13.9 89 -11.6 11.1
05:45 1009 29.8 839 24.78 -10.3 13.5 89 -11.7 10.9
05:50 1009 29.8 839 24.78 -10.4 13.4 89 -11.8 10.8
05:55 1009 29.8 839 24.78 -10.5 13.2 89 -11.9 10.6
06:00 1009 29.8 839 24.78 -10.6 12.9 89 -12.1 10.2
06:05 1009 29.8 839 24.78 -10.7 12.8 90 -12.1 10.3
06:10 1009 29.8 839 24.78 -10.7 12.8 92 -11.7 10.9
06:15 1009 29.8 839 24.78 -10.6 12.9 92 -11.6 11.1
06:20 1009 29.8 839 24.78 -10.6 12.8 92 -11.7 11
06:25 1009 29.8 839 24.78 -10.7 12.8 93 -11.7 11
06:30 1009 29.8 839 24.78 -10.5 13 93 -11.5 11.4
06:35 1009 29.8 839 24.78 -10.4 13.3 92 -11.4 11.5
06:40 1009 29.8 839 24.78 -10.3 13.4 92 -11.4 11.5
06:45 1009 29.8 839 24.78 -10.2 13.6 92 -11.2 11.8
06:50 1009 29.8 839 24.78 -10.1 13.9 92 -11.1 12
06:55 1010 29.83 839 24.78 -10.1 13.9 92 -11.1 12
07:00 1010 29.83 839 24.78 -10.1 13.9 91 -11.3 11.7
07:05 1010 29.83 839 24.78 -10.2 13.6 90 -11.6 11.1
07:10 1010 29.83 839 24.78 -10.4 13.2 88 -12 10.4
07:15 1010 29.83 839 24.78 -10.7 12.7 88 -12.3 9.8
07:20 1010 29.83 839 24.78 -11 12.2 88 -12.5 9.4
07:25 1010 29.83 839 24.78 -11.2 11.8 89 -12.7 9.1
07:30 1010 29.83 839 24.78 -11.4 11.6 88 -13 8.6
07:35 1010 29.83 839 24.78 -11.6 11.1 85 -13.6 7.5
07:40 1010 29.83 839 24.78 -12 10.3 89 -13.4 7.8
07:45 1010 29.83 839 24.78 -12 10.4 91 -13.2 8.3
07:50 1010 29.83 839 24.78 -11.9 10.6 90 -13.2 8.2
07:55 1010 29.83 839 24.78 -11.7 11 90 -13 8.6
08:00 1010 29.83 839 24.78 -11.3 11.6 90 -12.6 9.3
08:05 1010 29.83 839 24.78 -10.9 12.4 90 -12.2 10
08:10 1010 29.83 839 24.78 -10.5 13.1 89 -11.9 10.6
08:15 1010 29.83 839 24.78 -10.1 13.9 88 -11.6 11
08:20 1010 29.83 839 24.78 -9.7 14.6 86 -11.5 11.2
08:25 1010 29.83 839 24.78 -9.5 15 86 -11.4 11.5
08:30 1010 29.83 839 24.78 -9.2 15.5 85 -11.3 11.6
08:35 1010 29.83 839 24.78 -9 15.9 85 -11 12.2
08:40 1010 29.83 839 24.78 -8.5 16.6 86 -10.5 13.1
08:45 1010 29.83 839 24.78 -8 17.5 84 -10.2 13.6
08:50 1010 29.83 839 24.78 -7.6 18.4 83 -9.9 14.1
08:55 1010 29.83 839 24.78 -7.2 19 83 -9.7 14.6
09:00 1010 29.83 839 24.78 -6.9 19.5 83 -9.4 15.1
09:05 1010 29.83 839 24.78 -6.7 20 83 -9.1 15.5
09:10 1010 29.83 839 24.78 -6.5 20.3 83 -9 15.9
09:15 1010 29.83 839 24.78 -6.4 20.5 83 -8.9 16.1
09:20 1010 29.83 839 24.78 -6.2 20.8 82 -8.9 16
09:25 1010 29.83 839 24.78 -6 21.1 83 -8.5 16.7
09:30 1010 29.83 839 24.78 -5.9 21.3 77 -9.3 15.3
09:35 1010 29.83 839 24.78 -6.4 20.5 78 -9.7 14.6
09:40 1010 29.83 839 24.78 -6.9 19.5 81 -9.7 14.6
09:45 1010 29.83 839 24.78 -7 19.5 81 -9.7 14.6
09:50 1010 29.83 839 24.78 -6.7 19.9 81 -9.4 15
09:55 1010 29.83 839 24.78 -6.4 20.4 80 -9.3 15.3
10:00 1010 29.83 839 24.78 -6 21.1 80 -9 15.7
10:05 1010 29.83 839 24.78 -5.6 21.9 76 -9.1 15.6
10:10 1010 29.83 839 24.78 -5.4 22.3 78 -8.6 16.5
10:15 1010 29.83 839 24.78 -5 23 77 -8.5 16.7
10:20 1010 29.83 839 24.78 -4.6 23.8 71 -9.1 15.6
10:25 1010 29.83 839 24.78 -4.9 23.2 73 -9 15.8
10:30 1010 29.83 839 24.78 -5.1 22.8 77 -8.5 16.7
10:35 1010 29.83 839 24.78 -4.7 23.5 72 -9.1 15.6
10:50 1010 29.83 839 24.78 -4.7 23.6 73 -8.9 16
10:55 1010 29.83 839 24.78 -4.7 23.6 72 -8.9 15.9
11:00 1010 29.83 839 24.78 -4.4 24 69 -9.3 15.3
11:05 1010 29.83 839 24.78 -4.6 23.6 70 -9.4 15.1
11:10 1010 29.83 839 24.78 -4.5 23.8 71 -9.1 15.7
11:15 1010 29.83 839 24.78 -4.9 23.2 73 -9 15.7
11:20 1010 29.83 839 24.78 -5.1 22.9 77 -8.5 16.7
11:25 1010 29.83 839 24.78 -4.6 23.6 73 -8.8 16.1
11:30 1010 29.83 839 24.78 -3.5 25.7 71 -7.9 17.7
11:35 1010 29.83 839 24.78 -1.9 28.6 63 -8 17.7
11:40 1010 29.83 839 24.78 -1.3 29.6 63 -7.6 18.4
11:45 1010 29.83 839 24.78 -1.3 29.7 56 -8.9 15.9
11:50 1009 29.8 839 24.78 -1.3 29.6 59 -8.3 17.1
11:55 1009 29.8 839 24.78 -1.3 29.6 60 -8.1 17.5
12:00 1009 29.8 839 24.78 -2 28.5 63 -8.1 17.4
12:05 1009 29.8 839 24.78 -1.4 29.4 60 -8.1 17.4
12:10 1009 29.8 838 24.75 -1.6 29.1 57 -9.1 15.7
12:15 1009 29.8 838 24.75 -2.2 28 56 -9.8 14.4
12:20 1009 29.8 838 24.75 -3 26.6 59 -10 14.1
12:25 1009 29.8 838 24.75 -2.9 26.8 66 -8.4 16.9
12:30 1009 29.8 838 24.75 -2.5 27.5 62 -8.8 16.1
12:35 1009 29.8 838 24.75 -1.6 29.1 57 -9.1 15.6
12:40 1009 29.8 838 24.75 -0.7 30.8 54 -8.8 16.1
12:45 1009 29.8 838 24.75 -0.6 31 57 -8.1 17.4
12:50 1009 29.8 838 24.75 -0.1 31.8 57 -7.6 18.3
12:55 1009 29.8 838 24.75 -1.1 30 59 -8.1 17.4
13:00 1009 29.8 838 24.75 -1.8 28.8 60 -8.6 16.5
13:05 1009 29.8 838 24.75 -1.8 28.8 55 -9.5 14.8
13:10 1009 29.8 838 24.75 -2.5 27.5 62 -8.7 16.3
13:15 1009 29.8 838 24.75 -2.4 27.8 61 -8.9 16
13:20 1009 29.8 838 24.75 -1.7 29 64 -7.6 18.3
13:25 1009 29.8 838 24.75 -1.7 28.9 60 -8.4 16.8
13:30 1009 29.8 838 24.75 -2.6 27.3 60 -9.3 15.2
13:35 1009 29.8 838 24.75 -1.9 28.5 64 -7.9 17.8
13:40 1009 29.8 838 24.75 -1.2 29.9 61 -7.7 18.2
13:45 1009 29.8 838 24.75 -1.1 30.1 59 -8.1 17.5
13:50 1009 29.8 838 24.75 -1.8 28.8 64 -7.7 18.1
13:55 1009 29.8 838 24.75 -1.9 28.6 63 -8.1 17.4
14:00 1009 29.8 838 24.75 -2.1 28.3 62 -8.4 16.9
14:05 1009 29.8 838 24.75 -2.1 28.2 62 -8.5 16.8
14:10 1009 29.8 838 24.75 -1.7 28.9 62 -8 17.5
14:15 1009 29.8 838 24.75 -1.4 29.5 61 -8 17.6
14:20 1009 29.8 838 24.75 -1.2 29.8 62 -7.5 18.5
14:25 1009 29.8 838 24.75 -0.7 30.7 58 -7.9 17.7
14:30 1009 29.8 838 24.75 -0.9 30.4 56 -8.6 16.5
14:35 1009 29.8 838 24.75 -1.5 29.2 59 -8.5 16.7
14:40 1008 29.77 838 24.75 -1.4 29.5 59 -8.4 16.8
14:45 1008 29.77 838 24.75 -1.4 29.5 62 -7.8 18
14:50 1009 29.8 838 24.75 -1.1 30 62 -7.4 18.6
14:55 1009 29.8 838 24.75 -0.9 30.4 56 -8.6 16.5
15:00 1009 29.8 838 24.75 -1.9 28.6 62 -8.1 17.4
15:05 1009 29.8 838 24.75 -2.6 27.4 62 -8.8 16.2
15:10 1009 29.8 838 24.75 -2.9 26.7 66 -8.4 16.9
15:15 1009 29.8 838 24.75 -2.5 27.5 61 -9.1 15.7
15:20 1009 29.8 838 24.75 -2.2 28.1 60 -9 15.9
15:25 1009 29.8 838 24.75 -2.3 27.8 59 -9.3 15.2
15:30 1009 29.8 838 24.75 -3.4 26 65 -9 15.8
15:35 1008 29.77 838 24.75 -3.4 26 66 -8.8 16.1
15:40 1008 29.77 838 24.75 -3.3 26.1 65 -8.9 16
15:45 1008 29.77 838 24.75 -3.4 25.9 68 -8.5 16.7
15:50 1008 29.77 838 24.75 -3 26.5 67 -8.2 17.2
15:55 1009 29.8 838 24.75 -2.8 26.9 68 -7.9 17.8
16:00 1009 29.8 838 24.75 -2.9 26.7 72 -7.3 18.9
16:05 1009 29.8 838 24.75 -3.2 26.2 73 -7.3 18.9
16:10 1009 29.8 838 24.75 -3.6 25.6 74 -7.5 18.5
16:15 1008 29.77 838 24.75 -3.7 25.4 75 -7.5 18.5
16:20 1008 29.77 838 24.75 -3.6 25.5 74 -7.7 18.2
16:25 1008 29.77 838 24.75 -3.8 25.1 76 -7.4 18.7
16:30 1008 29.77 838 24.75 -4.2 24.4 79 -7.4 18.7
16:35 1008 29.77 838 24.75 -4.6 23.7 81 -7.5 18.5
16:40 1008 29.77 838 24.75 -5.2 22.6 80 -8.1 17.4
16:45 1008 29.77 838 24.75 -5.4 22.3 81 -8.1 17.4
16:50 1008 29.77 838 24.75 -5.8 21.6 84 -8.1 17.5
16:55 1008 29.77 837 24.72 -6.2 20.9 84 -8.5 16.7
17:00 1008 29.77 838 24.75 -6.7 20 85 -8.8 16.1
17:05 1008 29.77 838 24.75 -6.9 19.6 85 -9 15.9
17:10 1008 29.77 838 24.75 -7 19.3 85 -9.1 15.6
17:15 1008 29.77 838 24.75 -7 19.4 83 -9.4 15.1
17:20 1008 29.77 838 24.75 -7.1 19.2 83 -9.6 14.8
17:25 1008 29.77 838 24.75 -7.2 19 82 -9.8 14.3
17:30 1008 29.77 838 24.75 -7.1 19.3 80 -10 14
17:35 1008 29.77 838 24.75 -7.4 18.7 81 -10.1 13.8
17:40 1009 29.8 838 24.75 -7.4 18.7 78 -10.6 12.8
17:45 1009 29.8 838 24.75 -7.4 18.7 77 -10.8 12.6
17:50 1008 29.77 838 24.75 -7.3 18.8 74 -11.2 11.8
17:55 1009 29.8 838 24.75 -7.4 18.7 75 -11.1 12.1
18:00 1009 29.8 838 24.75 -6.9 19.5 77 -10.4 13.3
18:05 1009 29.8 838 24.75 -7.5 18.4 83 -9.9 14.1
18:10 1009 29.8 838 24.75 -7.9 17.9 77 -11.2 11.8
18:15 1009 29.8 838 24.75 -7.8 17.9 79 -10.9 12.4
18:20 1009 29.8 838 24.75 -7.4 18.6 79 -10.5 13.1
18:25 1009 29.8 838 24.75 -7.4 18.7 82 -9.9 14.1
18:30 1009 29.8 838 24.75 -8 17.7 81 -10.7 12.7
18:35 1009 29.8 838 24.75 -8.2 17.3 79 -11.2 11.8
18:40 1009 29.8 838 24.75 -7.8 18 79 -10.8 12.6
18:45 1009 29.8 838 24.75 -7.7 18.2 80 -10.6 12.9
18:50 1009 29.8 838 24.75 -8.1 17.5 83 -10.4 13.2
18:55 1009 29.8 838 24.75 -8.1 17.4 83 -10.6 12.9
19:00 1009 29.8 838 24.75 -8.5 16.8 83 -10.9 12.4
19:05 1009 29.8 838 24.75 -8.3 17 84 -10.6 12.9
19:10 1009 29.8 838 24.75 -8 17.6 81 -10.7 12.8
19:15 1009 29.8 838 24.75 -8.2 17.2 80 -11.2 11.9
19:20 1009 29.8 838 24.75 -8 17.6 78 -11.2 11.8
19:25 1009 29.8 838 24.75 -8.2 17.3 78 -11.4 11.5
19:30 1009 29.8 838 24.75 -8.3 17 80 -11.1 12
19:35 1009 29.8 838 24.75 -8.4 16.8 78 -11.6 11.1
19:40 1009 29.8 838 24.75 -8 17.6 76 -11.5 11.3
19:45 1009 29.8 838 24.75 -7.8 17.9 74 -11.8 10.8
19:50 1009 29.8 838 24.75 -7.5 18.5 70 -12.1 10.2
19:55 1009 29.8 838 24.75 -6.8 19.7 69 -11.7 11
20:00 1009 29.8 838 24.75 -6.9 19.6 71 -11.3 11.6
20:05 1009 29.8 838 24.75 -7.5 18.5 75 -11.2 11.9
20:10 1009 29.8 838 24.75 -7.8 18 76 -11.2 11.8
20:15 1009 29.8 838 24.75 -7.8 17.9 78 -11 12.2
20:20 1009 29.8 838 24.75 -7.9 17.7 80 -10.8 12.6
20:25 1009 29.8 838 24.75 -8 17.6 79 -11 12.3
20:30 1009 29.8 838 24.75 -7.9 17.8 79 -10.9 12.4
20:35 1009 29.8 838 24.75 -8.2 17.3 81 -10.9 12.3
20:40 1009 29.8 838 24.75 -8.1 17.5 79 -11.1 12
20:45 1009 29.8 838 24.75 -8 17.7 79 -10.9 12.4
20:50 1009 29.8 838 24.75 -8.2 17.2 81 -11 12.2
20:55 1009 29.8 838 24.75 -8.2 17.2 80 -11 12.1
21:00 1009 29.8 838 24.75 -8.2 17.3 80 -10.9 12.3
21:05 1009 29.8 839 24.78 -7.6 18.4 76 -11 12.2
21:10 1009 29.8 839 24.78 -7.3 18.9 75 -11 12.2
21:15 1010 29.83 839 24.78 -7.2 19.1 74 -11.1 12
21:20 1010 29.83 839 24.78 -7.2 19 75 -11 12.2
21:25 1010 29.83 839 24.78 -7.6 18.3 75 -11.3 11.7
21:30 1010 29.83 839 24.78 -7.5 18.4 76 -11.1 12
21:35 1010 29.83 839 24.78 -7.7 18.1 78 -11 12.3
21:40 1010 29.83 839 24.78 -8.2 17.2 79 -11.3 11.7
21:45 1010 29.83 839 24.78 -8.8 16.2 80 -11.7 11
21:50 1010 29.83 839 24.78 -9.1 15.7 81 -11.7 10.9
21:55 1010 29.83 839 24.78 -9.1 15.6 82 -11.6 11
22:00 1010 29.83 839 24.78 -9.1 15.7 82 -11.6 11.1
22:05 1010 29.83 839 24.78 -9 15.9 82 -11.5 11.3
22:10 1010 29.83 839 24.78 -8.8 16.2 81 -11.4 11.5
22:15 1010 29.83 839 24.78 -8.9 16 81 -11.5 11.3
22:20 1010 29.83 839 24.78 -8.8 16.1 82 -11.4 11.4
22:25 1010 29.83 839 24.78 -8.9 16 81 -11.6 11.1
22:30 1010 29.83 839 24.78 -8.5 16.8 79 -11.4 11.5
22:35 1010 29.83 839 24.78 -8.3 17.1 79 -11.3 11.6
22:40 1010 29.83 839 24.78 -8.2 17.2 79 -11.3 11.6
22:45 1010 29.83 839 24.78 -8.3 17.1 79 -11.2 11.8
22:50 1010 29.83 839 24.78 -8.2 17.2 79 -11.2 11.8
22:55 1010 29.83 839 24.78 -8.7 16.4 80 -11.5 11.3
23:00 1010 29.83 839 24.78 -8.7 16.4 80 -11.5 11.3
23:05 1010 29.83 839 24.78 -8.8 16.3 81 -11.5 11.3
23:10 1010 29.83 839 24.78 -8.6 16.5 80 -11.5 11.4
23:15 1010 29.83 839 24.78 -8.4 16.9 79 -11.4 11.5
23:20 1010 29.83 839 24.78 -8.2 17.2 79 -11.3 11.7
23:25 1010 29.83 839 24.78 -8.1 17.5 78 -11.3 11.7
23:30 1010 29.83 839 24.78 -8 17.6 78 -11.3 11.7
23:35 1010 29.83 839 24.78 -7.9 17.7 77 -11.3 11.7
23:40 1010 29.83 839 24.78 -7.8 18 76 -11.3 11.7
23:45 1010 29.83 839 24.78 -7.9 17.8 77 -11.2 11.8
23:50 1010 29.83 839 24.78 -8.3 17 78 -11.5 11.4
23:55 1010 29.83 839 24.78 -8.5 16.7 78 -11.6 11.1
24:00 1010 29.83 839 24.78 -8.5 16.7 78 -11.6 11.1